createdAt,value
2022-11-30T00:07:44.534Z,4.52
2022-11-30T00:27:44.526Z,4.42
2022-11-30T00:47:44.549Z,4.40
2022-11-30T01:07:44.521Z,4.63
2022-11-30T01:27:44.504Z,4.78
2022-11-30T01:47:44.480Z,4.76
2022-11-30T02:07:44.472Z,4.83
2022-11-30T02:27:44.465Z,4.88
2022-11-30T02:47:44.489Z,4.88
2022-11-30T03:07:44.447Z,4.89
2022-11-30T03:27:44.435Z,4.82
2022-11-30T03:47:44.426Z,4.52
2022-11-30T04:07:44.407Z,4.52
2022-11-30T04:27:44.457Z,4.57
2022-11-30T04:47:44.397Z,4.54
2022-11-30T05:07:44.377Z,4.60
2022-11-30T05:27:44.365Z,4.78
2022-11-30T05:47:44.349Z,4.79
2022-11-30T06:07:44.352Z,4.71
2022-11-30T06:27:44.442Z,4.79
2022-11-30T06:47:44.327Z,4.76
2022-11-30T07:07:44.314Z,4.78
2022-11-30T07:27:44.285Z,4.74
2022-11-30T07:47:44.290Z,4.75
2022-11-30T08:07:44.311Z,4.70
2022-11-30T08:27:44.258Z,4.76
2022-11-30T08:47:44.380Z,4.78
2022-11-30T09:07:44.440Z,4.80
2022-11-30T09:47:44.405Z,4.52
2022-11-30T10:07:44.392Z,4.70
2022-11-30T10:27:44.291Z,4.78
2022-11-30T10:47:44.337Z,4.87
2022-11-30T11:07:44.179Z,4.92
2022-11-30T11:27:44.318Z,4.95
2022-11-30T11:47:44.230Z,4.93
2022-11-30T12:07:44.268Z,4.98
2022-11-30T12:27:44.148Z,5.04
2022-11-30T12:47:44.226Z,5.02
2022-11-30T13:07:44.164Z,5.05
2022-11-30T13:27:44.113Z,5.07
2022-11-30T13:47:44.082Z,5.01
2022-11-30T14:07:44.076Z,4.94
2022-11-30T14:27:44.060Z,4.86
2022-11-30T14:47:44.051Z,4.75
2022-11-30T15:07:44.084Z,4.63
2022-11-30T15:27:44.024Z,4.58
2022-11-30T15:47:44.108Z,4.63
2022-11-30T16:07:44.017Z,4.48
2022-11-30T16:27:44.108Z,4.30
2022-11-30T16:47:44.002Z,4.26
2022-11-30T17:07:43.977Z,4.30
2022-11-30T17:27:43.962Z,4.26
2022-11-30T17:47:43.955Z,4.26
2022-11-30T18:07:43.949Z,4.28
2022-11-30T18:27:43.970Z,4.26
2022-11-30T18:47:43.938Z,4.21
2022-11-30T19:07:43.924Z,4.22
2022-11-30T19:47:43.945Z,4.38
2022-11-30T20:07:44.001Z,4.48
2022-11-30T20:27:43.948Z,4.43
2022-11-30T20:47:43.879Z,4.39
2022-11-30T21:07:43.952Z,4.39
2022-11-30T21:27:43.856Z,4.33
2022-11-30T21:47:43.899Z,4.34
2022-11-30T22:07:43.851Z,4.25
2022-11-30T22:27:43.845Z,4.21
2022-11-30T22:47:43.794Z,4.09
2022-11-30T23:07:43.793Z,3.94
2022-11-30T23:27:43.788Z,3.78
2022-11-30T23:47:43.765Z,3.80
